Pagina principale
METAR-TAF:

METAR-TAF

Aeroporti :

Aeroporto di Oradea

Oradea, Romania

latitudine: 47-03N, longitudine: 021-56E, altezza: 135 m

Osservazione

Il bollettino è stato emesso 19 minuti fa, alle 12:30 UTC
Vento 5 kt da direzioni variabili
Temperature 27°C
Umidità 45%
Pressione 1016 hPa
Visibilità 10 km o più
nessuna nube inferiore a 1500 m e nessun cumulonembo

METAR: LROD 171230Z VRB05KT CAVOK 27/14 Q1016

Ora: 15:49 (12:49 UTC)

Previsione

Il bollettino è stato emesso 1 ora e 49 minuti fa, alle 11:00 UTC
Previsione valida dal 17 alle 12 UTC al 17 alle 21 UTC
Vento 4 kt da direzioni variabili
Visibilità 10 km o più
nessuna nube inferiore a 1500 m e nessun cumulonembo

TAF: LROD 171100Z 1712/1721 VRB04KT CAVOK

Osservazioni e previsioni meteorologiche di più di 4000 aeroporti (messaggi METAR e TAF).

Le stazioni disponibili sono rappresentate dai dischi gialli e rossi sulla carta.

Puntare il mouse per vedere il nome della stazione.

Clicca sopra per visualizzare le osservazioni e previsioni meteorologiche.

Per cambiare la mappa : fare clic sui pulsanti verdi con una croce nera per ingrandire, il pulsante verde con un trattino per diminuire, o sulla freccia verde per le mappe adiacenti.


METAR-TAF: